createdAt,value
2018-09-18T00:02:02.484Z,71.60
2018-09-18T00:04:30.747Z,71.80
2018-09-18T00:06:58.778Z,72.20
2018-09-18T00:09:26.821Z,72.10
2018-09-18T00:11:54.871Z,72.60
2018-09-18T00:14:22.918Z,72.60
2018-09-18T00:16:50.962Z,72.80
2018-09-18T00:19:19.006Z,72.90
2018-09-18T00:21:47.079Z,73.00
2018-09-18T00:24:15.151Z,73.00
2018-09-18T00:26:43.185Z,73.20
2018-09-18T00:29:11.366Z,72.90
2018-09-18T00:31:39.391Z,73.10
2018-09-18T00:34:07.457Z,72.90
2018-09-18T00:36:35.491Z,72.30
2018-09-18T00:39:04.131Z,72.50
2018-09-18T00:41:32.164Z,72.40
2018-09-18T00:44:00.492Z,72.30
2018-09-18T00:46:28.515Z,71.80
2018-09-18T00:48:56.569Z,71.40
2018-09-18T00:51:24.591Z,71.30
2018-09-18T00:53:52.623Z,71.20
2018-09-18T00:56:20.669Z,71.20
2018-09-18T00:58:48.708Z,71.60
2018-09-18T01:01:16.742Z,72.30
2018-09-18T01:03:44.789Z,73.00
2018-09-18T01:06:12.986Z,73.60
2018-09-18T01:08:41.204Z,74.50
2018-09-18T01:11:09.222Z,75.30
2018-09-18T01:13:37.259Z,76.10
2018-09-18T01:16:05.287Z,76.80
2018-09-18T01:18:40.529Z,77.60
2018-09-18T01:21:08.990Z,78.10
2018-09-18T01:23:37.167Z,78.80
2018-09-18T01:26:05.343Z,79.40
2018-09-18T01:28:33.666Z,80.10
2018-09-18T01:31:01.738Z,80.10
2018-09-18T01:33:30.209Z,80.80
2018-09-18T01:35:58.246Z,81.50
2018-09-18T01:38:26.301Z,82.00
2018-09-18T01:40:54.891Z,82.70
2018-09-18T01:43:22.934Z,83.80
2018-09-18T01:45:51.139Z,85.10
2018-09-18T01:48:19.528Z,85.70
2018-09-18T01:50:47.575Z,87.20
2018-09-18T01:53:15.620Z,87.30
2018-09-18T01:55:43.653Z,88.20
2018-09-18T01:58:11.708Z,89.00
2018-09-18T02:00:39.748Z,89.90
2018-09-18T02:03:07.838Z,90.30
2018-09-18T02:05:35.888Z,90.90
2018-09-18T02:08:03.947Z,91.20
2018-09-18T02:10:33.038Z,91.50
2018-09-18T02:13:01.079Z,92.30
2018-09-18T02:15:29.136Z,92.60
2018-09-18T02:17:57.189Z,92.90
2018-09-18T02:20:25.292Z,93.40
2018-09-18T02:22:53.336Z,93.70
2018-09-18T02:25:21.379Z,94.20
2018-09-18T02:27:49.418Z,94.30
2018-09-18T02:30:17.460Z,94.70
2018-09-18T02:32:45.511Z,95.00
2018-09-18T02:35:13.551Z,95.10
2018-09-18T02:37:41.631Z,95.10
2018-09-18T02:40:09.689Z,95.00
2018-09-18T02:42:37.751Z,95.20
2018-09-18T02:45:05.812Z,95.10
2018-09-18T02:47:33.900Z,95.70
2018-09-18T02:50:01.960Z,96.00
2018-09-18T02:52:30.005Z,96.40
2018-09-18T02:54:58.063Z,96.80
2018-09-18T02:57:26.724Z,97.10
2018-09-18T02:59:54.739Z,97.20
2018-09-18T03:02:22.863Z,97.60
2018-09-18T03:04:50.917Z,97.80
2018-09-18T03:07:18.972Z,98.10
2018-09-18T03:09:47.036Z,98.20
2018-09-18T03:12:15.080Z,98.70
2018-09-18T03:14:43.142Z,98.80
2018-09-18T03:17:11.195Z,99.20
2018-09-18T03:19:39.247Z,99.70
2018-09-18T03:22:07.296Z,99.90
2018-09-18T03:24:35.352Z,99.90
2018-09-18T03:27:03.493Z,99.90
2018-09-18T03:29:31.567Z,99.90
2018-09-18T03:31:59.611Z,99.90
2018-09-18T03:34:27.668Z,99.90
2018-09-18T03:36:56.056Z,99.90
2018-09-18T03:39:24.142Z,99.90
2018-09-18T03:41:52.177Z,99.90
2018-09-18T03:44:20.225Z,99.90
2018-09-18T03:46:48.258Z,99.90
2018-09-18T03:49:16.319Z,99.90
2018-09-18T03:51:44.400Z,99.90
2018-09-18T03:54:12.463Z,99.90
2018-09-18T03:56:40.529Z,99.90
2018-09-18T03:59:08.597Z,99.90
2018-09-18T04:01:36.642Z,99.90
2018-09-18T04:04:04.704Z,99.90
2018-09-18T04:06:32.744Z,99.90
2018-09-18T04:09:00.819Z,99.90
2018-09-18T04:11:28.971Z,99.90
2018-09-18T04:13:57.017Z,99.90
2018-09-18T04:16:25.064Z,99.90
2018-09-18T04:18:53.116Z,99.90
2018-09-18T04:21:25.422Z,99.90
2018-09-18T04:23:53.482Z,99.90
2018-09-18T04:26:21.531Z,99.90
2018-09-18T04:28:49.576Z,99.90
2018-09-18T04:31:17.630Z,99.90
2018-09-18T04:33:45.906Z,99.90
2018-09-18T04:36:13.965Z,99.90
2018-09-18T04:38:42.006Z,99.90
2018-09-18T04:41:10.133Z,99.90
2018-09-18T04:43:38.185Z,99.90
2018-09-18T04:46:06.396Z,99.90
2018-09-18T04:48:35.380Z,99.90
2018-09-18T04:51:03.432Z,99.90
2018-09-18T04:53:31.498Z,99.90
2018-09-18T04:55:59.552Z,99.90
2018-09-18T04:58:28.640Z,99.90
2018-09-18T05:00:56.700Z,99.90
2018-09-18T05:03:24.773Z,99.90
2018-09-18T05:05:52.848Z,99.90
2018-09-18T05:08:20.882Z,99.90
2018-09-18T05:10:48.924Z,99.90
2018-09-18T05:13:17.076Z,99.90
2018-09-18T05:15:45.158Z,99.90
2018-09-18T05:18:14.014Z,99.90
2018-09-18T05:20:42.132Z,99.90
2018-09-18T05:23:10.161Z,99.90
2018-09-18T05:25:38.353Z,99.90
2018-09-18T05:28:06.420Z,99.90
2018-09-18T05:30:34.487Z,99.90
2018-09-18T05:33:02.559Z,99.90
2018-09-18T05:35:30.614Z,98.60
2018-09-18T05:37:58.663Z,97.00
2018-09-18T05:40:26.728Z,94.40
2018-09-18T05:42:54.767Z,90.60
2018-09-18T05:45:23.042Z,82.70
2018-09-18T05:47:51.099Z,77.70
2018-09-18T05:50:19.208Z,73.10
2018-09-18T05:52:47.251Z,72.70
2018-09-18T05:55:15.296Z,73.10
2018-09-18T05:57:43.392Z,74.80
2018-09-18T06:00:11.452Z,73.10
2018-09-18T06:02:39.593Z,75.20
2018-09-18T06:05:07.670Z,75.40
2018-09-18T06:07:35.707Z,77.40
2018-09-18T06:10:03.747Z,77.30
2018-09-18T06:12:31.913Z,76.40
2018-09-18T06:15:00.184Z,74.00
2018-09-18T06:17:28.676Z,72.60
2018-09-18T06:19:57.019Z,70.80
2018-09-18T06:22:25.063Z,67.70
2018-09-18T06:24:53.099Z,66.30
2018-09-18T06:27:21.247Z,64.80
2018-09-18T06:29:49.279Z,63.70
2018-09-18T06:32:17.344Z,63.80
2018-09-18T06:34:45.383Z,61.80
2018-09-18T06:37:13.423Z,61.10
2018-09-18T06:39:41.451Z,59.10
2018-09-18T06:42:09.501Z,58.00
2018-09-18T06:44:37.537Z,57.00
2018-09-18T06:47:05.899Z,55.10
2018-09-18T06:49:33.919Z,53.20
2018-09-18T06:52:01.969Z,51.90
2018-09-18T06:54:30.044Z,51.60
2018-09-18T06:56:58.060Z,51.30
2018-09-18T06:59:26.083Z,49.80
2018-09-18T07:01:54.220Z,49.30
2018-09-18T07:04:22.258Z,49.10
2018-09-18T07:06:50.306Z,48.00
2018-09-18T07:09:18.354Z,47.20
2018-09-18T07:11:46.396Z,46.20
2018-09-18T07:14:14.439Z,45.70
2018-09-18T07:16:42.483Z,45.00
2018-09-18T07:19:10.527Z,44.90
2018-09-18T07:21:38.586Z,43.50
2018-09-18T07:24:06.716Z,43.70
2018-09-18T07:26:34.788Z,42.90
2018-09-18T07:29:02.835Z,42.20
2018-09-18T07:31:30.983Z,40.40
2018-09-18T07:33:59.039Z,39.30
2018-09-18T07:36:27.176Z,38.80
2018-09-18T07:38:55.231Z,38.70
2018-09-18T07:41:23.404Z,39.50
2018-09-18T07:43:51.429Z,39.80
2018-09-18T07:46:19.495Z,39.90
2018-09-18T07:48:47.535Z,39.30
2018-09-18T07:51:15.583Z,39.20
2018-09-18T07:53:43.607Z,37.60
2018-09-18T07:56:11.652Z,37.90
2018-09-18T07:58:39.688Z,37.50
2018-09-18T08:01:07.756Z,37.70
2018-09-18T08:03:35.892Z,37.00
2018-09-18T08:06:04.004Z,35.50
2018-09-18T08:08:32.034Z,36.20
2018-09-18T08:11:00.180Z,35.10
2018-09-18T08:13:28.112Z,35.00
2018-09-18T08:15:56.139Z,34.50
2018-09-18T08:18:24.198Z,34.50
2018-09-18T08:20:52.877Z,35.00
2018-09-18T08:23:20.922Z,34.90
2018-09-18T08:25:49.089Z,34.00
2018-09-18T08:28:17.136Z,33.70
2018-09-18T08:30:45.176Z,32.70
2018-09-18T08:33:13.224Z,32.30
2018-09-18T08:35:41.267Z,32.50
2018-09-18T08:38:09.495Z,33.00
2018-09-18T08:40:38.174Z,32.30
2018-09-18T08:43:06.262Z,31.60
2018-09-18T08:45:34.308Z,32.10
2018-09-18T08:48:02.381Z,32.10
2018-09-18T08:50:30.416Z,31.50
2018-09-18T08:52:58.496Z,31.00
2018-09-18T08:55:26.519Z,31.60
2018-09-18T08:57:54.559Z,32.00
2018-09-18T09:00:22.600Z,31.20
2018-09-18T09:02:50.722Z,30.70
2018-09-18T09:05:18.764Z,31.20
2018-09-18T09:07:47.037Z,31.90
2018-09-18T09:10:15.089Z,32.80
2018-09-18T09:12:43.332Z,32.10
2018-09-18T09:15:11.417Z,31.70
2018-09-18T09:17:39.403Z,31.60
2018-09-18T09:20:07.615Z,31.70
2018-09-18T09:22:35.688Z,31.20
2018-09-18T09:25:03.797Z,30.80
2018-09-18T09:27:31.876Z,30.70
2018-09-18T09:29:59.930Z,30.70
2018-09-18T09:32:28.023Z,30.00
2018-09-18T09:34:56.087Z,30.00
2018-09-18T09:37:24.149Z,30.30
2018-09-18T09:39:52.207Z,30.20
2018-09-18T09:42:20.255Z,30.20
2018-09-18T09:44:48.292Z,30.40
2018-09-18T09:47:16.341Z,31.20
2018-09-18T09:49:44.379Z,32.00
2018-09-18T09:52:12.451Z,32.10
2018-09-18T09:54:40.484Z,31.80
2018-09-18T09:57:08.531Z,31.90
2018-09-18T09:59:36.754Z,31.60
2018-09-18T10:02:10.307Z,31.40
2018-09-18T10:04:38.344Z,31.00
2018-09-18T10:07:06.392Z,30.70
2018-09-18T10:09:34.440Z,30.80
2018-09-18T10:12:02.492Z,30.90
2018-09-18T10:14:30.789Z,31.20
2018-09-18T10:16:58.848Z,30.80
2018-09-18T10:19:26.895Z,31.30
2018-09-18T10:21:55.032Z,31.40
2018-09-18T10:24:23.115Z,31.90
2018-09-18T10:26:51.227Z,32.50
2018-09-18T10:29:19.227Z,33.70
2018-09-18T10:31:47.272Z,35.00
2018-09-18T10:34:15.318Z,35.40
2018-09-18T10:36:43.479Z,36.00
2018-09-18T10:39:12.031Z,36.20
2018-09-18T10:41:40.418Z,36.40
2018-09-18T10:44:08.408Z,37.30
2018-09-18T10:46:36.885Z,36.80
2018-09-18T10:49:05.049Z,37.40
2018-09-18T10:51:33.092Z,37.40
2018-09-18T10:54:01.136Z,37.00
2018-09-18T10:56:29.231Z,37.50
2018-09-18T10:58:58.307Z,38.20
2018-09-18T11:01:26.377Z,38.00
2018-09-18T11:03:54.428Z,38.80
2018-09-18T11:06:22.559Z,38.80
2018-09-18T11:08:50.629Z,38.80
2018-09-18T11:11:18.680Z,38.60
2018-09-18T11:13:46.752Z,39.00
2018-09-18T11:16:15.300Z,38.20
2018-09-18T11:18:43.268Z,38.70
2018-09-18T11:21:11.381Z,39.10
2018-09-18T11:23:39.369Z,39.30
2018-09-18T11:26:07.459Z,39.50
2018-09-18T11:28:35.499Z,40.10
2018-09-18T11:31:03.574Z,40.00
2018-09-18T11:33:31.647Z,40.00
2018-09-18T11:35:59.682Z,39.70
2018-09-18T11:38:27.743Z,40.40
2018-09-18T11:40:56.392Z,40.00
2018-09-18T11:43:24.903Z,40.10
2018-09-18T11:45:53.052Z,39.60
2018-09-18T11:48:21.003Z,40.20
2018-09-18T11:50:49.088Z,40.10
2018-09-18T11:53:17.161Z,39.80
2018-09-18T11:55:45.213Z,38.60
2018-09-18T11:58:13.293Z,38.90
2018-09-18T12:00:41.359Z,39.30
2018-09-18T12:03:09.653Z,39.70
2018-09-18T12:05:37.933Z,39.50
2018-09-18T12:08:06.077Z,38.50
2018-09-18T12:10:34.205Z,38.00
2018-09-18T12:13:03.067Z,37.40
2018-09-18T12:15:31.236Z,37.30
2018-09-18T12:17:59.386Z,38.20
2018-09-18T12:20:27.651Z,38.50
2018-09-18T12:22:55.717Z,39.00
2018-09-18T12:25:24.643Z,39.50
2018-09-18T12:27:52.795Z,39.20
2018-09-18T12:30:20.872Z,39.60
2018-09-18T12:32:48.918Z,39.60
2018-09-18T12:35:16.995Z,40.00
2018-09-18T12:37:45.027Z,39.60
2018-09-18T12:40:14.809Z,39.00
2018-09-18T12:42:42.976Z,40.10
2018-09-18T12:45:11.024Z,39.40
2018-09-18T12:47:39.068Z,39.10
2018-09-18T12:50:07.471Z,38.60
2018-09-18T12:52:35.899Z,38.80
2018-09-18T12:55:03.980Z,39.00
2018-09-18T12:57:32.481Z,38.80
2018-09-18T13:00:00.451Z,38.10
2018-09-18T13:02:28.598Z,37.90
2018-09-18T13:04:56.612Z,37.70
2018-09-18T13:07:24.732Z,37.80
2018-09-18T13:09:52.759Z,38.00
2018-09-18T13:12:20.934Z,37.00
2018-09-18T13:14:49.122Z,37.30
2018-09-18T13:17:17.240Z,37.10
2018-09-18T13:19:45.436Z,37.30
2018-09-18T13:22:13.488Z,35.80
2018-09-18T13:24:41.596Z,35.90
2018-09-18T13:27:09.640Z,34.20
2018-09-18T13:29:37.976Z,34.40
2018-09-18T13:32:06.232Z,33.90
2018-09-18T13:34:34.380Z,32.40
2018-09-18T13:37:02.445Z,32.50
2018-09-18T13:39:30.531Z,31.30
2018-09-18T13:41:58.571Z,31.80
2018-09-18T13:44:26.687Z,32.30
2018-09-18T13:46:54.736Z,32.70
2018-09-18T13:49:22.783Z,33.00
2018-09-18T13:51:50.909Z,32.90
2018-09-18T13:54:18.922Z,33.30
2018-09-18T13:56:47.039Z,32.80
2018-09-18T13:59:15.090Z,33.40
2018-09-18T14:01:43.519Z,33.30
2018-09-18T14:04:11.434Z,33.70
2018-09-18T14:06:39.510Z,34.20
2018-09-18T14:09:08.444Z,34.40
2018-09-18T14:11:36.612Z,34.50
2018-09-18T14:14:04.674Z,34.70
2018-09-18T14:16:32.737Z,35.20
2018-09-18T14:19:00.821Z,35.30
2018-09-18T14:21:28.879Z,35.40
2018-09-18T14:23:57.021Z,35.40
2018-09-18T14:26:25.449Z,35.50
2018-09-18T14:28:53.555Z,35.50
2018-09-18T14:31:21.640Z,36.00
2018-09-18T14:33:49.676Z,35.90
2018-09-18T14:36:17.747Z,36.40
2018-09-18T14:38:45.791Z,36.40
2018-09-18T14:41:13.832Z,36.40
2018-09-18T14:43:41.855Z,36.40
2018-09-18T14:46:09.908Z,36.10
2018-09-18T14:48:37.945Z,36.00
2018-09-18T14:51:06.148Z,36.00
2018-09-18T14:53:34.183Z,36.20
2018-09-18T14:56:02.233Z,37.00
2018-09-18T14:58:30.402Z,36.80
2018-09-18T15:00:58.492Z,36.70
2018-09-18T15:03:26.548Z,37.00
2018-09-18T15:05:54.583Z,37.40
2018-09-18T15:08:22.834Z,37.40
2018-09-18T15:10:50.914Z,37.50
2018-09-18T15:13:18.955Z,37.60
2018-09-18T15:15:47.020Z,37.60
2018-09-18T15:18:15.066Z,37.90
2018-09-18T15:20:43.104Z,37.70
2018-09-18T15:23:11.295Z,38.00
2018-09-18T15:25:39.441Z,37.90
2018-09-18T15:28:07.491Z,38.10
2018-09-18T15:30:35.632Z,38.00
2018-09-18T15:33:03.716Z,38.40
2018-09-18T15:35:32.427Z,38.50
2018-09-18T15:38:00.563Z,38.50
2018-09-18T15:40:28.641Z,38.60
2018-09-18T15:42:56.744Z,39.00
2018-09-18T15:45:24.990Z,39.20
2018-09-18T15:47:53.040Z,39.20
2018-09-18T15:50:21.095Z,39.30
2018-09-18T15:52:49.129Z,39.60
2018-09-18T15:55:17.302Z,39.80
2018-09-18T15:57:45.491Z,40.20
2018-09-18T16:00:13.517Z,40.30
2018-09-18T16:02:41.574Z,40.70
2018-09-18T16:05:09.647Z,41.00
2018-09-18T16:07:37.679Z,41.80
2018-09-18T16:10:05.740Z,41.30
2018-09-18T16:12:33.948Z,41.70
2018-09-18T16:15:02.028Z,41.80
2018-09-18T16:17:30.179Z,42.00
2018-09-18T16:19:58.203Z,42.00
2018-09-18T16:22:26.339Z,42.20
2018-09-18T16:24:54.482Z,42.50
2018-09-18T16:27:22.613Z,42.60
2018-09-18T16:29:50.667Z,42.70
2018-09-18T16:32:18.741Z,42.80
2018-09-18T16:34:46.783Z,43.30
2018-09-18T16:37:14.847Z,43.90
2018-09-18T16:39:42.976Z,43.70
2018-09-18T16:42:11.143Z,44.10
2018-09-18T16:44:39.196Z,44.90
2018-09-18T16:47:07.295Z,44.80
2018-09-18T16:49:35.456Z,44.90
2018-09-18T16:52:03.515Z,45.70
2018-09-18T16:54:31.638Z,45.90
2018-09-18T16:56:59.654Z,48.00
2018-09-18T16:59:27.703Z,47.80
2018-09-18T17:01:55.771Z,48.50
2018-09-18T17:04:23.848Z,48.90
2018-09-18T17:06:51.940Z,49.50
2018-09-18T17:09:20.016Z,49.80
2018-09-18T17:11:48.089Z,50.20
2018-09-18T17:14:16.149Z,50.70
2018-09-18T17:16:44.194Z,51.20
2018-09-18T17:19:12.298Z,51.40
2018-09-18T17:21:40.363Z,51.70
2018-09-18T17:24:08.467Z,51.90
2018-09-18T17:26:36.517Z,52.30
2018-09-18T17:29:04.591Z,52.50
2018-09-18T17:31:32.624Z,52.90
2018-09-18T17:34:00.742Z,53.10
2018-09-18T17:36:28.818Z,53.30
2018-09-18T17:38:56.948Z,53.40
2018-09-18T17:41:25.957Z,53.70
2018-09-18T17:43:54.109Z,54.00
2018-09-18T17:46:22.289Z,54.20
2018-09-18T17:48:50.655Z,54.20
2018-09-18T17:51:18.720Z,54.50
2018-09-18T17:53:47.374Z,54.40
2018-09-18T17:56:15.490Z,54.20
2018-09-18T17:58:43.778Z,54.30
2018-09-18T18:01:11.819Z,54.40
2018-09-18T18:03:39.868Z,54.60
2018-09-18T18:06:07.913Z,54.70
2018-09-18T18:08:36.866Z,54.90
2018-09-18T18:11:05.165Z,54.80
2018-09-18T18:13:34.352Z,55.50
2018-09-18T18:16:02.389Z,54.80
2018-09-18T18:18:30.429Z,54.80
2018-09-18T18:20:58.579Z,54.40
2018-09-18T18:23:26.601Z,54.10
2018-09-18T18:25:54.685Z,54.00
2018-09-18T18:28:23.148Z,53.90
2018-09-18T18:30:51.191Z,53.50
2018-09-18T18:33:19.319Z,53.30
2018-09-18T18:35:47.287Z,53.20
2018-09-18T18:38:15.343Z,52.80
2018-09-18T18:40:43.429Z,52.50
2018-09-18T18:43:11.464Z,52.40
2018-09-18T18:45:39.519Z,52.30
2018-09-18T18:48:07.690Z,52.00
2018-09-18T18:50:35.617Z,51.90
2018-09-18T18:53:03.663Z,51.70
2018-09-18T18:55:31.792Z,51.70
2018-09-18T18:57:59.830Z,51.80
2018-09-18T19:00:27.888Z,51.70
2018-09-18T19:02:55.936Z,51.80
2018-09-18T19:05:23.971Z,51.60
2018-09-18T19:07:52.827Z,51.80
2018-09-18T19:10:20.883Z,51.90
2018-09-18T19:12:48.945Z,52.00
2018-09-18T19:15:17.053Z,51.90
2018-09-18T19:17:45.129Z,52.00
2018-09-18T19:20:13.181Z,52.10
2018-09-18T19:22:41.238Z,52.10
2018-09-18T19:25:09.275Z,52.20
2018-09-18T19:27:37.412Z,52.20
2018-09-18T19:30:05.623Z,52.20
2018-09-18T19:32:33.804Z,52.30
2018-09-18T19:35:01.868Z,52.40
2018-09-18T19:37:29.991Z,52.50
2018-09-18T19:39:58.045Z,52.60
2018-09-18T19:42:26.147Z,52.60
2018-09-18T19:44:54.195Z,52.80
2018-09-18T19:47:22.576Z,52.90
2018-09-18T19:49:50.654Z,53.70
2018-09-18T19:52:18.834Z,53.20
2018-09-18T19:54:46.787Z,53.30
2018-09-18T19:57:14.884Z,53.40
2018-09-18T19:59:43.031Z,53.30
2018-09-18T20:02:11.136Z,53.40
2018-09-18T20:04:39.200Z,53.60
2018-09-18T20:07:07.257Z,53.40
2018-09-18T20:09:35.354Z,53.40
2018-09-18T20:12:03.361Z,53.50
2018-09-18T20:14:31.403Z,53.40
2018-09-18T20:16:59.522Z,53.30
2018-09-18T20:19:27.572Z,53.40
2018-09-18T20:21:55.614Z,53.50
2018-09-18T20:24:23.659Z,53.50
2018-09-18T20:26:51.711Z,53.60
2018-09-18T20:29:19.759Z,53.70
2018-09-18T20:31:47.799Z,53.80
2018-09-18T20:34:15.851Z,53.90
2018-09-18T20:36:43.883Z,54.00
2018-09-18T20:39:12.369Z,54.10
2018-09-18T20:41:40.458Z,54.10
2018-09-18T20:44:08.452Z,54.30
2018-09-18T20:46:36.480Z,54.40
2018-09-18T20:51:33.091Z,54.80
2018-09-18T20:54:01.145Z,54.90
2018-09-18T20:56:29.178Z,55.10
2018-09-18T20:58:57.222Z,55.30
2018-09-18T21:01:25.251Z,55.40
2018-09-18T21:03:53.297Z,55.60
2018-09-18T21:06:21.343Z,55.70
2018-09-18T21:08:49.386Z,55.80
2018-09-18T21:11:17.419Z,56.10
2018-09-18T21:13:45.551Z,56.20
2018-09-18T21:16:13.580Z,56.30
2018-09-18T21:18:41.620Z,56.50
2018-09-18T21:21:09.661Z,56.60
2018-09-18T21:23:37.699Z,56.80
2018-09-18T21:26:08.786Z,57.10
2018-09-18T21:28:36.824Z,57.40
2018-09-18T21:31:04.951Z,57.70
2018-09-18T21:33:33.012Z,57.80
2018-09-18T21:36:01.259Z,58.00
2018-09-18T21:38:29.758Z,58.30
2018-09-18T21:40:57.797Z,58.60
2018-09-18T21:43:26.402Z,58.60
2018-09-18T21:45:54.427Z,58.60
2018-09-18T21:48:22.893Z,59.40
2018-09-18T21:50:50.939Z,58.70
2018-09-18T21:53:18.982Z,59.00
2018-09-18T21:55:47.160Z,59.10
2018-09-18T21:58:15.207Z,59.60
2018-09-18T22:00:43.503Z,59.60
2018-09-18T22:03:11.683Z,59.70
2018-09-18T22:05:39.708Z,59.70
2018-09-18T22:08:07.784Z,59.90
2018-09-18T22:10:35.819Z,60.00
2018-09-18T22:13:03.880Z,60.10
2018-09-18T22:15:32.541Z,60.40
2018-09-18T22:18:00.581Z,60.60
2018-09-18T22:20:28.625Z,60.80
2018-09-18T22:22:56.671Z,61.10
2018-09-18T22:25:25.134Z,61.00
2018-09-18T22:27:53.722Z,61.20
2018-09-18T22:30:22.655Z,61.70
2018-09-18T22:32:50.707Z,60.80
2018-09-18T22:35:18.745Z,60.70
2018-09-18T22:37:46.807Z,60.40
2018-09-18T22:40:14.861Z,60.60
2018-09-18T22:42:42.895Z,60.70
2018-09-18T22:45:10.947Z,60.60
2018-09-18T22:47:38.980Z,60.50
2018-09-18T22:50:07.375Z,60.70
2018-09-18T22:52:35.404Z,60.50
2018-09-18T22:55:03.456Z,60.40
2018-09-18T22:57:31.614Z,60.30
2018-09-18T22:59:59.580Z,60.20
2018-09-18T23:02:27.853Z,60.00
2018-09-18T23:04:55.920Z,59.90
2018-09-18T23:07:23.964Z,59.80
2018-09-18T23:09:52.017Z,60.00
2018-09-18T23:12:20.067Z,60.40
2018-09-18T23:14:48.119Z,60.80
2018-09-18T23:17:16.309Z,61.10
2018-09-18T23:19:44.339Z,61.50
2018-09-18T23:22:12.436Z,61.50
2018-09-18T23:24:40.460Z,61.50
2018-09-18T23:27:08.499Z,61.90
2018-09-18T23:29:36.555Z,61.40
2018-09-18T23:32:04.591Z,61.40
2018-09-18T23:34:32.637Z,61.40
2018-09-18T23:37:00.682Z,61.40
2018-09-18T23:39:28.736Z,61.60
2018-09-18T23:41:56.773Z,61.90
2018-09-18T23:44:24.825Z,62.20
2018-09-18T23:46:52.883Z,62.60
2018-09-18T23:49:20.939Z,63.00
2018-09-18T23:51:48.975Z,63.20
2018-09-18T23:54:17.022Z,63.30
2018-09-18T23:56:45.063Z,63.80
2018-09-18T23:59:13.128Z,63.90
